ADDS TAF Board (Experimental) INFO Settings
IDs: Format: Expanded Condensed

KEWR - Newark Intl, NJ, US

Issued at 1534 UTC 24 May 2016
Updated at: 1540 UTC 24 May 2016
Time1451Z 24/16Z 24/17Z 24/18Z 24/19Z 24/20Z 24/21Z 24/22Z 24/23Z 25/00Z 25/01Z 25/02Z 25/03Z 25/04Z
Type OBS PRVL PRVL PRVL PRVL PRVL PRVL PRVL PRVL PRVL PRVL PRVL PRVL PRVL
VIS 10 >6 >6 >6 >6 >6 >6 >6 >6 >6 >6 >6 >6 >6
CIG 75 50 50 50 50 90 90 90 90 -- -- -- -- --
Cover OVC BKN BKN BKN BKN BKN BKN BKN BKN SCT SCT SCT SCT SCT
FltCat VFR VFR VFR VFR VFR VFR VFR VFR VFR VFR VFR VFR VFR VFR
WX -- VCSH VCSH VCSH VCSH VCSH VCSH VCSH VCSH -- -- -- -- --
WDir 330 VRB VRB VRB VRB 140 140 140 140 260 260 260 260 260
WSpd 3 5 5 5 5 7 7 7 7 5 5 5 5 5
WGst -- -- -- -- -- -- -- -- -- -- -- -- -- --
R04/22
XWnd 2 VRB VRB VRB VRB -6 -6 -6 -6 4 4 4 4 4
HWnd 2 VRB VRB VRB VRB -3 -3 -3 -3 -3 -3 -3 -3 -3
R11/29
XWnd 2 VRB VRB VRB VRB -5 -5 -5 -5 -1 -1 -1 -1 -1
HWnd -2 VRB VRB VRB VRB 5 5 5 5 -5 -5 -5 -5 -5

NOTE: TEMPO conditions in [brackets]. Keep in mind TEMPO conditions might be better (lower impact) than prevailing conditions.

Raw TAF
KEWR 241534Z 2416/2518 VRB05KT P6SM VCSH BKN050
  FM242000 14007KT P6SM VCSH FEW050 BKN090
  FM250000 26005KT P6SM SCT120
  FM251600 26012G19KT P6SM SCT250


Raw METAR
KEWR 241451Z 33003KT 10SM FEW015 OVC075 18/15 A2992 RMK AO2 RAE41 SLP132 P0000 60002 T01830150 51006
KEWR 241351Z 26005KT 9SM -RA FEW015 OVC065 17/14 A2992 RMK AO2 SLP131 P0001 T01670144
KEWR 241251Z 30006KT 10SM -RA FEW025 SCT055 OVC080 17/14 A2992 RMK AO2 SLP131 P0001 T01720139 $

METAR Board
Radar Display
Forecast Discussion

TAF Board Legend

Potential Impact
Threat None Slight Moderate High
Visibility (sm) ≥5.1 5.1>X≥3 3>X≥1 <1
Ceiling (100 ft) ≥30.1 30.1>X≥10 10>X≥5 <5
Wind Speed (kt) <10 10≤X<20 20≤X<30 ≥30
Wind Gust (kt) <15 15≤X<25 25≤X<35 ≥35
Weather No Wx Reported VCTS,-TS,-FZRA,SN TS,FZRA +TS,+FZRA,+SN